Latest Weather Observations for Cummins Airport

IDS60801

Issued at 5:02 pm CDT Saturday 28 February 2015 (issued every 30 minutes, with the page automatically refreshed every 10 minutes)

About weather observations | Map of weather stations | Latest weather observations for SA | Other Formats
Station Details ID: 018217 Name: CUMMINS AERO Lat: -34.25 Lon: 135.71 Height: 60.11 m
Data from the previous 72 hours. | See also: Recent months at Cummins Airport
Date/Time
CDT
Temp
°C
App
Temp
°C
Dew
Point
Rel
Hum
%
Delta-T
°C
Wind Press
QNH
hPa
Press
MSL
hPa
Rain
since 9 am
mm
Dir
 
Spd
km/h
Gust
km/h
Spd
kts
Gust
kts
28/05:00pm 22.9 17.8 14.7 60 4.9 SSW 35 46 19 25 1008.9 1008.7 0.0
28/04:30pm 23.9 18.8 14.9 57 5.4 SSW 35 46 19 25 1008.3 1008.1 0.0
28/04:00pm 25.1 19.5 15.4 55 5.9 SSW 39 50 21 27 1007.8 1007.6 0.0
28/03:30pm 25.0 19.1 14.8 53 6.1 SSW 39 48 21 26 1007.6 1007.4 0.0
28/03:00pm 26.9 22.0 14.3 46 7.6 SSW 33 48 18 26 1007.3 1007.1 0.0
28/02:30pm 27.5 22.6 15.2 47 7.5 SSW 35 48 19 26 1006.8 1006.6 0.0
28/02:00pm 26.9 23.2 15.9 51 6.8 SW 30 44 16 24 1006.8 1006.6 0.0
28/01:30pm 29.1 24.5 14.5 41 8.9 SSW 32 41 17 22 1006.5 1006.3 0.0
28/01:00pm 28.9 23.9 13.9 39 9.0 SW 33 43 18 23 1006.5 1006.3 0.0
28/12:30pm 28.7 24.7 13.0 38 9.3 SW 26 35 14 19 1006.4 1006.2 0.0
28/12:00pm 27.3 22.9 11.7 37 9.0 SSW 26 37 14 20 1006.2 1006.0 0.0
28/11:30am 26.1 22.8 13.9 47 7.3 SSW 24 33 13 18 1006.2 1006.0 0.0
28/11:00am 27.1 24.1 14.8 47 7.4 SW 24 32 13 17 1005.7 1005.5 0.0
28/10:30am 25.8 22.4 13.6 47 7.2 SW 24 32 13 17 1005.6 1005.4 0.0
28/10:00am 25.4 21.9 12.3 44 7.5 SW 22 30 12 16 1005.4 1005.2 0.0
28/09:30am 25.1 23.3 12.0 44 7.5 SSW 13 17 7 9 1004.9 1004.7 0.0
28/09:00am 23.3 21.8 12.0 49 6.4 WSW 11 15 6 8 1005.5 1005.3 0.0
28/08:30am 21.8 22.6 12.6 56 5.3 CALM 0 0 0 0 1005.0 1004.8 0.0
28/08:00am 19.1 20.0 12.8 67 3.6 CALM 0 0 0 0 1004.5 1004.3 0.0
28/07:30am 17.3 17.7 12.4 73 2.7 E 2 7 1 4 1004.0 1003.8 0.0
28/07:00am 16.8 17.3 11.7 72 2.8 CALM 0 0 0 0 1003.7 1003.5 0.0
28/06:30am 17.9 18.7 12.6 71 3.0 CALM 0 0 0 0 1003.4 1003.2 0.0
28/06:00am 17.5 16.8 11.5 68 3.3 NNE 6 7 3 4 1003.1 1002.9 0.0
28/05:30am 18.5 19.1 12.0 66 3.6 CALM 0 0 0 0 1002.9 1002.7 0.0
28/05:00am 19.6 19.2 12.4 63 4.0 WNW 6 7 3 4 1002.9 1002.7 0.0
28/04:30am 21.8 21.3 13.9 61 4.6 NNE 9 11 5 6 1002.6 1002.4 0.0
28/04:00am 22.3 22.0 13.4 57 5.1 N 7 11 4 6 1002.6 1002.4 0.0
28/03:30am 23.8 24.1 13.4 52 6.1 ENE 4 7 2 4 1002.8 1002.6 0.0
28/03:00am 24.6 23.3 13.8 51 6.4 NE 13 20 7 11 1002.9 1002.7 0.0
28/02:30am 24.3 22.9 14.4 54 5.9 NE 15 24 8 13 1003.4 1003.2 0.0
28/02:00am 24.2 22.7 14.3 54 5.9 NE 15 19 8 10 1003.7 1003.5 0.0
28/01:30am 24.6 23.6 13.5 50 6.5 E 11 17 6 9 1004.4 1004.2 0.0
28/01:00am 24.6 23.9 11.9 45 7.2 ENE 7 13 4 7 1004.3 1004.1 0.0
28/12:30am 24.1 22.4 11.1 44 7.3 E 11 17 6 9 1004.4 1004.2 0.0
28/12:00am 25.0 22.7 10.5 40 8.1 E 13 15 7 8 1005.0 1004.8 0.0
 
Date/Time
CDT
Temp
°C
App
Temp
°C
Dew
Point
Rel
Hum
%
Delta-T
°C
Wind Press
QNH
hPa
Press
MSL
hPa
Rain
since 9 am
mm
Dir
 
Spd
km/h
Gust
km/h
Spd
kts
Gust
kts
27/11:30pm 25.0 22.8 10.8 41 8.0 ESE 13 17 7 9 1005.5 1005.3 0.0
27/11:00pm 25.3 22.0 11.5 42 7.8 E 20 26 11 14 1005.7 1005.5 0.0
27/10:30pm 25.4 22.3 10.4 39 8.4 E 17 22 9 12 1006.1 1005.9 0.0
27/10:00pm 25.3 22.9 10.0 38 8.5 ENE 13 19 7 10 1006.5 1006.3 0.0
27/09:30pm 24.7 22.3 10.2 40 8.1 E 13 15 7 8 1006.7 1006.5 0.0
27/09:00pm 24.7 23.7 10.2 40 8.0 E 6 7 3 4 1007.5 1007.3 0.0
27/08:30pm 25.3 25.1 10.4 39 8.3 NNW 2 9 1 5 1007.8 1007.6 0.0
27/08:00pm 26.0 23.6 10.2 37 8.8 WSW 13 15 7 8 1008.2 1008.0 0.0
27/07:30pm 26.4 25.1 11.3 39 8.6 SSW 9 13 5 7 1007.3 1007.1 0.0
27/07:00pm 26.6 24.9 11.1 38 8.8 SW 11 15 6 8 1007.5 1007.3 0.0
27/06:30pm 26.7 24.2 11.2 38 8.8 S 15 20 8 11 1007.2 1007.0 0.0
27/06:00pm 26.2 23.0 11.9 41 8.2 S 20 26 11 14 1006.9 1006.7 0.0
27/05:30pm 28.5 22.8 8.2 28 11.1 SW 28 41 15 22 1005.8 1005.6 0.0
27/05:00pm 29.4 23.1 7.3 25 11.9 WSW 30 41 16 22 1005.7 1005.5 0.0
27/04:51pm 29.6 22.4 7.5 25 12.0 WSW 35 54 19 29 1005.7 1005.5 0.0
27/04:42pm 30.8 24.9 7.3 23 12.8 W 28 52 15 28 1005.6 1005.4 0.0
27/04:30pm 33.0 28.4 6.3 19 14.5 WNW 20 32 11 17 1005.4 1005.2 0.0
27/04:00pm 33.4 26.9 6.6 19 14.6 W 30 39 16 21 1005.2 1005.0 0.0
27/03:30pm 34.1 27.8 5.6 17 15.4 WNW 28 37 15 20 1005.3 1005.1 0.0
27/03:00pm 34.8 29.4 6.2 17 15.7 WSW 24 33 13 18 1005.3 1005.1 0.0
27/02:30pm 35.2 30.4 5.6 16 16.1 WNW 20 32 11 17 1005.2 1005.0 0.0
27/02:00pm 35.4 30.8 5.8 16 16.1 WNW 19 24 10 13 1005.5 1005.3 0.0
27/01:30pm 36.3 32.1 5.5 15 16.8 NNW 17 24 9 13 1005.9 1005.7 0.0
27/01:00pm 35.9 30.6 5.2 15 16.6 N 22 32 12 17 1006.4 1006.2 0.0
27/12:30pm 36.1 29.9 4.4 14 17.0 N 26 35 14 19 1007.0 1006.8 0.0
27/12:00pm 34.6 29.3 6.8 18 15.3 N 24 33 13 18 1007.4 1007.2 0.0
27/11:30am 33.5 28.0 7.5 20 14.4 N 26 35 14 19 1007.7 1007.5 0.0
27/11:00am 32.7 28.1 9.5 24 13.2 NNE 24 32 13 17 1007.9 1007.7 0.0
27/10:30am 31.6 27.6 10.3 27 12.2 NE 22 32 12 17 1008.1 1007.9 0.0
27/10:00am 29.4 25.8 11.9 34 10.2 NE 22 32 12 17 1008.4 1008.2 0.0
27/09:30am 27.5 25.1 12.7 40 8.7 NE 17 24 9 13 1008.5 1008.3 0.0
27/09:00am 26.7 25.1 12.7 42 8.2 ENE 13 20 7 11 1008.7 1008.5 0.0
27/08:30am 24.6 23.8 12.9 48 6.8 ENE 9 15 5 8 1008.9 1008.7 0.0
27/08:00am 23.0 22.3 12.0 50 6.2 E 7 11 4 6 1008.9 1008.7 0.0
27/07:30am 21.7 20.2 12.0 54 5.5 ENE 11 17 6 9 1008.6 1008.4 0.0
27/07:00am 21.5 19.0 10.9 51 5.8 NE 15 20 8 11 1008.4 1008.2 0.0
27/06:30am 21.4 19.5 13.1 59 4.8 ENE 15 22 8 12 1008.0 1007.8 0.0
27/06:00am 20.8 18.3 8.4 45 6.5 NNE 11 20 6 11 1008.4 1008.2 0.0
27/05:30am 21.8 19.4 10.0 47 6.4 E 13 22 7 12 1008.0 1007.8 0.0
27/05:00am 22.1 19.6 6.7 37 7.9 NNE 9 17 5 9 1008.0 1007.8 0.0
27/04:30am 22.7 18.4 1.1 24 10.0 ENE 13 26 7 14 1008.0 1007.8 0.0
27/04:00am 23.0 18.1 1.9 25 9.9 E 17 22 9 12 1008.1 1007.9 0.0
27/03:30am 21.9 18.5 2.1 27 9.3 ESE 9 15 5 8 1008.3 1008.1 0.0
27/03:00am 19.5 17.6 0.5 28 8.5 CALM 0 0 0 0 1008.9 1008.7 0.0
27/02:30am 21.4 17.9 -2.5 20 10.2 ESE 6 11 3 6 1009.2 1009.0 0.0
27/02:00am 20.6 17.3 -0.1 25 9.2 ESE 7 9 4 5 1009.5 1009.3 0.0
27/01:30am 20.3 18.6 1.7 29 8.6 CALM 0 0 0 0 1009.8 1009.6 0.0
27/01:00am 20.0 17.4 3.3 33 7.9 ESE 6 7 3 4 1010.0 1009.8 0.0
27/12:30am 20.5 19.1 3.3 32 8.2 CALM 0 0 0 0 1010.5 1010.3 0.0
27/12:00am 19.5 16.9 4.0 36 7.4 SE 7 9 4 5 1010.8 1010.6 0.0
 
Date/Time
CDT
Temp
°C
App
Temp
°C
Dew
Point
Rel
Hum
%
Delta-T
°C
Wind Press
QNH
hPa
Press
MSL
hPa
Rain
since 9 am
mm
Dir
 
Spd
km/h
Gust
km/h
Spd
kts
Gust
kts
26/11:30pm 19.7 18.9 6.4 42 6.7 CALM 0 0 0 0 1011.2 1010.9 0.0
26/11:00pm 20.4 19.6 6.4 40 7.1 CALM 0 0 0 0 1011.4 1011.1 0.0
26/10:30pm 21.8 21.2 7.2 39 7.5 CALM 0 0 0 0 1011.7 1011.4 0.0
26/10:00pm 23.4 22.6 6.7 34 8.6 CALM 0 0 0 0 1011.4 1011.1 0.0
26/09:30pm 23.7 20.9 6.9 34 8.7 SE 11 15 6 8 1011.0 1010.7 0.0
26/09:00pm 24.7 21.3 7.8 34 9.0 ESE 15 20 8 11 1010.6 1010.4 0.0
26/08:30pm 25.5 21.9 8.5 34 9.2 SE 17 22 9 12 1010.5 1010.3 0.0
26/08:00pm 26.9 22.9 8.4 31 10.0 SE 19 24 10 13 1010.2 1010.0 0.0
26/07:30pm 28.9 24.7 7.5 26 11.6 ESE 19 22 10 12 1010.1 1009.9 0.0
26/07:00pm 30.0 25.8 8.4 26 11.9 SE 20 26 11 14 1009.8 1009.6 0.0
26/06:30pm 31.5 27.4 8.5 24 12.8 SE 20 24 11 13 1009.4 1009.2 0.0
26/06:00pm 33.2 28.5 9.3 23 13.6 SE 24 32 13 17 1009.1 1008.9 0.0
26/05:30pm 33.8 29.8 8.4 21 14.3 ESE 19 28 10 15 1008.9 1008.7 0.0
26/05:00pm 34.3 29.7 8.1 20 14.7 SSW 22 33 12 18 1008.8 1008.6 0.0
26/04:30pm 34.7 32.5 7.7 19 15.1 WSW 9 19 5 10 1008.9 1008.7 0.0
26/04:00pm 34.9 31.6 7.9 19 15.1 SSW 15 24 8 13 1009.2 1009.0 0.0
26/03:30pm 34.1 32.3 8.0 20 14.6 WSW 7 13 4 7 1009.6 1009.4 0.0
26/03:00pm 34.4 32.5 7.5 19 15.0 S 7 15 4 8 1010.0 1009.8 0.0
26/02:30pm 33.6 31.9 7.5 20 14.5 W 6 9 3 5 1010.3 1010.1 0.0
26/02:00pm 33.3 30.2 7.3 20 14.3 NNE 13 19 7 10 1010.7 1010.5 0.0
26/01:30pm 32.3 30.4 6.5 20 14.0 WSW 6 11 3 6 1011.4 1011.1 0.0
26/01:00pm 31.3 28.3 4.2 18 14.0 WSW 9 15 5 8 1011.9 1011.6 0.0
26/12:30pm 30.2 27.6 4.0 19 13.5 NW 7 15 4 8 1012.4 1012.1 0.0
26/12:00pm 29.2 26.2 3.9 20 12.9 ENE 9 13 5 7 1012.6 1012.3 0.0
26/11:30am 28.0 24.8 3.0 20 12.4 E 9 17 5 9 1013.0 1012.7 0.0
26/11:00am 26.4 24.0 4.2 24 11.2 S 6 13 3 7 1013.3 1013.0 0.0
26/10:30am 25.0 23.4 8.9 36 8.7 ESE 7 13 4 7 1013.3 1013.0 0.0
26/10:00am 24.0 23.5 9.2 39 8.0 E 2 9 1 5 1013.4 1013.1 0.0
26/09:30am 21.8 22.2 12.6 56 5.2 ESE 2 7 1 4 1013.6 1013.3 0.0
26/09:00am 19.1 18.8 11.4 61 4.2 S 4 7 2 4 1013.8 1013.5 0.0
26/08:30am 16.5 16.7 10.6 68 3.1 CALM 0 0 0 0 1013.5 1013.2 0.0
26/08:00am 13.9 13.7 9.1 73 2.4 CALM 0 0 0 0 1013.1 1012.8 0.0
26/07:30am 12.1 11.6 8.0 76 2.0 CALM 0 0 0 0 1012.9 1012.6 0.0
26/07:00am 11.9 11.3 7.6 75 2.1 CALM 0 0 0 0 1012.6 1012.3 0.0
26/06:30am 12.4 12.0 8.1 75 2.1 CALM 0 0 0 0 1012.2 1011.9 0.0
26/06:00am 12.1 11.7 8.2 77 1.9 CALM 0 0 0 0 1011.9 1011.6 0.0
26/05:30am 12.3 11.9 8.4 77 1.9 CALM 0 0 0 0 1011.6 1011.3 0.0
26/05:00am 12.2 11.7 7.7 74 2.2 CALM 0 0 0 0 1011.4 1011.1 0.0
26/04:30am 14.6 13.9 10.2 75 2.3 SSW 4 9 2 5 1011.5 1011.2 0.0
26/04:00am 15.3 14.3 10.9 75 2.3 S 7 9 4 5 1011.5 1011.2 0.0
26/03:30am 15.2 14.5 10.2 72 2.6 SSE 4 7 2 4 1011.4 1011.1 0.0
26/03:00am 14.7 13.0 9.7 72 2.6 SSE 9 11 5 6 1011.6 1011.3 0.0
26/02:30am 14.6 13.1 9.2 70 2.8 SSW 7 9 4 5 1012.0 1011.7 0.0
26/02:00am 14.6 11.9 8.8 68 2.9 SW 13 17 7 9 1012.2 1011.9 0.0
26/01:30am 13.9 11.4 8.3 69 2.8 NNE 11 13 6 7 1011.5 1011.2 0.0
26/01:00am 14.4 14.1 8.6 68 2.9 CALM 0 0 0 0 1012.6 1012.3 0.0
26/12:30am 14.6 13.9 8.5 67 3.1 NW 2 6 1 3 1013.2 1012.9 0.0
26/12:00am 14.6 13.0 8.8 68 2.9 E 7 11 4 6 1013.1 1012.8 0.0
 
Date/Time
CDT
Temp
°C
App
Temp
°C
Dew
Point
Rel
Hum
%
Delta-T
°C
Wind Press
QNH
hPa
Press
MSL
hPa
Rain
since 9 am
mm
Dir
 
Spd
km/h
Gust
km/h
Spd
kts
Gust
kts
25/11:30pm 15.5 15.4 9.6 68 3.1 CALM 0 0 0 0 1013.7 1013.4 0.0
25/11:00pm 17.2 16.6 10.3 64 3.7 S 4 7 2 4 1014.0 1013.7 0.0
25/10:30pm 17.4 15.4 10.3 63 3.8 S 11 15 6 8 1014.2 1014.0 0.0
25/10:00pm 18.5 17.0 10.6 60 4.3 SE 9 11 5 6 1014.0 1013.7 0.0
25/09:30pm 19.8 17.7 11.3 58 4.7 SE 13 17 7 9 1014.1 1013.9 0.0
25/09:00pm 20.8 18.8 11.4 55 5.2 SE 13 17 7 9 1014.0 1013.7 0.0
25/08:30pm 21.7 19.3 11.4 52 5.7 SSE 15 19 8 10 1013.9 1013.6 0.0
25/08:00pm 23.2 20.6 11.9 49 6.4 SSE 17 20 9 11 1013.4 1013.1 0.0
25/07:30pm 24.1 21.4 11.8 46 7.0 SE 17 20 9 11 1013.0 1012.7 0.0
25/07:00pm 26.2 22.6 11.9 41 8.2 S 22 30 12 16 1012.5 1012.2 0.0
25/06:30pm 26.9 21.3 11.4 38 8.9 SSW 32 39 17 21 1012.4 1012.1 0.0
25/06:00pm 29.7 26.6 10.3 30 11.0 SSW 17 26 9 14 1011.8 1011.5 0.0
25/05:30pm 30.5 27.5 10.5 29 11.5 SSW 17 30 9 16 1011.9 1011.6 0.0

Other Formats:

Comma delimited format used in spreadsheet applications
http://www.bom.gov.au/fwo/IDS60801/IDS60801.95663.axf

JavaScript Object Notation format (JSON) in row-major order
http://www.bom.gov.au/fwo/IDS60801/IDS60801.95663.json